Flight Track Log - Related Links

Times and Time Zones

All times are in EDT time to prevent confusion due to time zone crossing. See the EJA583 flight status page for this flight to view local times or setup timezone preferences in your user account.

Time Position Orientation Groundspeed Altitude Reporting Facility
EDT Latitude Longitude Course Direction KTS MPH feet Rate Location/Type
Thu 04:25:28 PM 36.0756 -115.1658 270° West 216 249 3,200  Level Los Angeles Center
Thu 04:26:10 PM 36.0758 -115.2161 270° West 212 244 5,900 2,214 Climbing Los Angeles Center
Thu 04:27:11 PM 36.0258 -115.2750 224° Southwest 280 322 7,000 923 Climbing Los Angeles Center
Thu 04:27:15 PM 36.0364 -115.2700 21° North 256 295 6,900 1,636 Descending Los Angeles Center
Thu 04:28:17 PM 35.9433 -115.3039 196° South 286 329 8,800 2,186 Climbing Los Angeles Center
Thu 04:29:13 PM 35.8639 -115.3150 186° South 300 345 11,200 2,419 Climbing Los Angeles Center
Thu 04:29:19 PM 35.8600 -115.3125 152° Southeast 295 339 11,300 2,206 Climbing Los Angeles Center
Thu 04:30:21 PM 35.7739 -115.3050 176° South 304 350 13,700 2,687 Climbing Los Angeles Center
Thu 04:30:26 PM 35.7581 -115.3044 178° South 315 362 14,300 2,419 Climbing Los Angeles Center
Thu 04:31:23 PM 35.6847 -115.3017 178° South 314 361 16,200 2,168 Climbing Los Angeles Center
Thu 04:32:25 PM 35.6189 -115.3725 221° Southwest 312 359 18,600 1,839 Climbing Los Angeles Center
Thu 04:33:27 PM 35.5592 -115.4519 227° Southwest 312 359 20,000 1,440 Climbing Los Angeles Center
Thu 04:34:30 PM 35.4781 -115.5617 228° Southwest 340 391 21,600 1,536 Climbing Los Angeles Center
Thu 04:35:32 PM 35.4086 -115.6572 228° Southwest 370 426 23,200 1,597 Climbing Los Angeles Center
Thu 04:36:34 PM 35.3381 -115.7508 227° Southwest 375 432 24,900 1,452 Climbing Los Angeles Center
Thu 04:37:36 PM 35.2644 -115.8489 227° Southwest 377 434 26,200 1,113 Climbing Los Angeles Center
Thu 04:38:38 PM 35.1928 -115.9422 227° Southwest 387 445 27,200 871 Climbing Los Angeles Center
Thu 04:39:40 PM 35.1183 -116.0425 228° Southwest 396 456 28,000 387 Climbing Los Angeles Center
Thu 04:40:42 PM 35.0133 -116.1569 222° Southwest 419 482 28,000  Level Los Angeles Center
Thu 04:41:45 PM 34.9217 -116.2553 221° Southwest 434 499 28,000  Level Los Angeles Center
Thu 04:42:47 PM 34.8311 -116.3511 221° Southwest 433 498 28,000  Level Los Angeles Center
Thu 04:43:49 PM 34.7414 -116.4453 221° Southwest 427 491 28,000  Level Los Angeles Center
Thu 04:44:51 PM 34.6528 -116.5397 221° Southwest 422 486 28,000  Level Los Angeles Center
Thu 04:45:53 PM 34.5631 -116.6325 220° Southwest 423 487 28,000 -145 Level Los Angeles Center
Thu 04:46:55 PM 34.4556 -116.7444 221° Southwest 423 487 27,700 -1,258 Descending Los Angeles Center
Thu 04:47:57 PM 34.3647 -116.8397 221° Southwest 431 496 25,400 -2,226 Descending Los Angeles Center
Thu 04:48:59 PM 34.2728 -116.9353 221° Southwest 434 499 23,100 -2,160 Descending Los Angeles Center
Thu 04:50:02 PM 34.1844 -117.0269 221° Southwest 420 483 20,900 -2,192 Descending Los Angeles Center
Thu 04:50:43 PM 34.1167 -117.1000 222° Southwest 405 466 19,300 -1,473 Descending Southern California TRACON
Thu 04:52:49 PM 34.0333 -117.3333 247° West 338 389 16,800 -1,956 Descending Southern California TRACON
Thu 04:53:44 PM 34.0333 -117.4333 270° West 354 407 13,400 -1,624 Descending Southern California TRACON
Thu 04:55:50 PM 34.0000 -117.6667 260° West 325 374 11,900 -1,028 Descending Southern California TRACON
Thu 04:56:45 PM 34.0000 -117.7500 270° West 285 328 10,300 -1,636 Descending Southern California TRACON
Thu 04:57:51 PM 33.9833 -117.8500 259° West 271 312 8,600 -1,429 Descending Southern California TRACON
Thu 04:58:51 PM 33.9833 -117.9333 270° West 241 277 7,300 -1,250 Descending Southern California TRACON
Thu 04:59:51 PM 33.9667 -118.0167 256° West 217 250 6,100 -1,200 Descending Southern California TRACON
Thu 05:00:51 PM 33.9667 -118.0833 270° West 219 252 4,900 -1,150 Descending Southern California TRACON
Thu 05:01:51 PM 33.9667 -118.1500 270° West 220 253 3,800 -1,063 Descending Southern California TRACON
Thu 05:02:27 PM 33.9581 -118.1833 253° West 220 253 3,200 -1,102 Descending Los Angeles Center
Thu 05:03:29 PM 33.9494 -118.2656 263° West 214 246 2,000 -968 Descending Los Angeles Center
Thu 05:04:31 PM 33.9433 -118.3225 263° West 193 222 1,200 -720 Descending Los Angeles Center
Thu 05:05:34 PM 33.9397 -118.3694 265° West 163 188 500 -432 Descending Los Angeles Center
Thu 05:06:36 PM 33.9339 -118.4106 260° West 144 166 300 -194 Descending Los Angeles Center
Thu 05:08:55 PM 33.9333 -118.4000 North  Level FlightAware Approximate
Thu 05:15:00 PM 33.9425 -118.4081 North  Level Estimated
Thu 05:16:00 PM 33.9425 -118.4081 North  Level Estimated
Thu 05:17:00 PM 33.9425 -118.4081 North  Level Estimated
Thu 05:18:00 PM 33.9425 -118.4081 North  Level Estimated
Thu 05:19:00 PM 33.9425 -118.4081 North  Level Estimated
Thu 05:20:00 PM 33.9425 -118.4081 North  Level Estimated
Thu 05:21:00 PM 33.9425 -118.4081 North  Level Estimated
Thu 05:22:00 PM 33.9425 -118.4081 North  Level Estimated

Login

Don't have an account? Register now (free) for customized features, flight alerts, and more!